Time;durP1;ratioP1;P1;durP2;ratioP2;P2;SDS_P1;SDS_P2;PMS_P1;PMS_P2;Temp;Humidity;BMP_temperature;BMP_pressure;BME280_temperature;BME280_humidity;BME280_pressure;Samples;Min_cycle;Max_cycle;Signal;HPM_P1;HPM_P2
2021/12/27 00:01:47;;;;;;;13.38;2.08;;;20.70;99.90;;;;;;5050590;28;20239;-74
2021/12/27 00:04:18;;;;;;;10.25;2.53;;;20.80;99.90;;;;;;5052538;28;20645;-76
2021/12/27 00:06:51;;;;;;;12.07;2.65;;;20.90;99.90;;;;;;5053050;28;20193;-73
2021/12/27 00:09:21;;;;;;;9.43;2.50;;;20.90;99.90;;;;;;5052674;28;20185;-73
2021/12/27 00:11:52;;;;;;;17.42;3.15;;;20.90;99.90;;;;;;5052656;28;20190;-73
2021/12/27 00:14:22;;;;;;;6.88;1.80;;;21.00;99.90;;;;;;5051825;28;20209;-76
2021/12/27 00:16:53;;;;;;;12.45;2.28;;;21.00;99.90;;;;;;5051415;28;20194;-74
2021/12/27 00:19:24;;;;;;;23.30;4.25;;;21.20;99.90;;;;;;5053200;28;20638;-74
2021/12/27 00:21:57;;;;;;;13.77;2.60;;;21.30;99.90;;;;;;5052880;28;20642;-74
2021/12/27 00:24:28;;;;;;;12.25;2.20;;;21.40;99.90;;;;;;5048205;28;20204;-74
2021/12/27 00:26:58;;;;;;;9.05;1.90;;;21.50;99.90;;;;;;5051267;28;20194;-75
2021/12/27 00:29:29;;;;;;;5.78;1.60;;;21.40;99.90;;;;;;5056519;28;20194;-74
2021/12/27 00:32:00;;;;;;;14.50;2.47;;;21.30;99.90;;;;;;5052115;28;20231;-75
2021/12/27 00:34:30;;;;;;;15.10;2.90;;;21.20;99.90;;;;;;5055518;28;20210;-74
2021/12/27 00:37:03;;;;;;;19.52;5.80;;;21.20;99.90;;;;;;5055467;28;20673;-74
2021/12/27 00:39:34;;;;;;;13.68;2.00;;;21.30;99.90;;;;;;5054787;28;20681;-75
2021/12/27 00:42:05;;;;;;;17.30;3.92;;;21.30;99.90;;;;;;5049610;28;20217;-74
2021/12/27 00:44:36;;;;;;;11.15;2.40;;;21.40;99.90;;;;;;5053093;28;20194;-75
2021/12/27 00:47:07;;;;;;;11.80;2.25;;;21.50;99.90;;;;;;5041861;28;20190;-74
2021/12/27 00:49:38;;;;;;;12.50;2.67;;;21.60;99.90;;;;;;5040503;28;20185;-74
2021/12/27 00:52:11;;;;;;;10.35;2.05;;;21.80;99.90;;;;;;5056411;28;20716;-74
2021/12/27 00:54:44;;;;;;;10.32;1.92;;;22.00;99.90;;;;;;5055623;28;20213;-73
2021/12/27 00:57:21;;;;;;;8.63;2.00;;;22.10;99.90;;;;;;5056097;28;20190;-75
2021/12/27 01:00:13;;;;;;;9.98;1.95;;;22.20;99.90;;;;;;5051349;28;20205;-75
2021/12/27 01:02:44;;;;;;;17.40;2.17;;;22.20;99.90;;;;;;5055035;28;20185;-74
2021/12/27 01:05:15;;;;;;;10.18;1.95;;;22.20;99.90;;;;;;5055763;28;20255;-76
2021/12/27 01:07:48;;;;;;;11.95;2.20;;;22.20;99.90;;;;;;5054558;28;20201;-75
2021/12/27 01:10:53;;;;;;;9.93;2.00;;;22.10;99.90;;;;;;5055273;28;20230;-75
2021/12/27 01:13:36;;;;;;;9.80;2.30;;;22.10;99.90;;;;;;5055594;28;20271;-74
2021/12/27 01:16:13;;;;;;;13.23;2.08;;;22.00;99.90;;;;;;5050667;28;20198;-76
2021/12/27 01:18:47;;;;;;;12.32;2.33;;;22.10;99.90;;;;;;5054558;28;20659;-76
2021/12/27 01:21:19;;;;;;;14.73;2.30;;;22.20;99.90;;;;;;5055886;28;20300;-75
2021/12/27 01:23:53;;;;;;;12.00;2.10;;;22.50;99.90;;;;;;5054767;28;20247;-74
2021/12/27 01:26:27;;;;;;;11.25;1.90;;;22.60;99.90;;;;;;5043712;28;20220;-74
2021/12/27 01:29:01;;;;;;;10.50;2.10;;;22.60;99.90;;;;;;5055523;28;20194;-74
2021/12/27 01:31:33;;;;;;;10.27;2.03;;;22.50;99.90;;;;;;5055408;28;20241;-76
2021/12/27 01:34:03;;;;;;;13.02;2.30;;;22.60;99.90;;;;;;5053483;28;20210;-75
2021/12/27 01:36:34;;;;;;;8.65;1.70;;;22.60;99.90;;;;;;5055278;28;20220;-75
2021/12/27 01:39:08;;;;;;;9.52;2.10;;;22.60;99.90;;;;;;5053195;28;20198;-75
2021/12/27 01:41:38;;;;;;;11.98;1.90;;;22.70;99.90;;;;;;5046447;28;20247;-76
2021/12/27 01:44:11;;;;;;;12.20;2.00;;;22.80;99.90;;;;;;5052649;28;20197;-75
2021/12/27 01:46:41;;;;;;;11.50;2.33;;;22.70;99.90;;;;;;5054924;28;20217;-74
2021/12/27 01:49:12;;;;;;;11.80;2.75;;;22.70;99.90;;;;;;5050511;28;20197;-75
2021/12/27 01:51:43;;;;;;;10.13;1.75;;;22.70;99.90;;;;;;5055165;28;20259;-74
2021/12/27 01:54:15;;;;;;;10.38;2.10;;;22.70;99.90;;;;;;5055286;28;20263;-74
2021/12/27 01:56:46;;;;;;;15.23;2.45;;;22.60;99.90;;;;;;5055144;28;20320;-75
2021/12/27 01:59:19;;;;;;;9.75;1.75;;;22.60;99.90;;;;;;5054997;28;20193;-76
2021/12/27 02:01:50;;;;;;;6.40;1.65;;;22.60;99.90;;;;;;5054713;28;20574;-75
2021/12/27 02:04:21;;;;;;;13.25;2.17;;;22.70;99.90;;;;;;5049259;28;20190;-74
2021/12/27 02:06:52;;;;;;;9.48;1.70;;;22.90;99.90;;;;;;5051241;28;20193;-75
2021/12/27 02:09:33;;;;;;;9.07;1.60;;;23.00;99.90;;;;;;5055058;28;20193;-75
2021/12/27 02:12:03;;;;;;;9.18;1.73;;;23.00;99.90;;;;;;5014768;28;20190;-76
2021/12/27 02:14:34;;;;;;;12.00;2.00;;;23.00;99.90;;;;;;5012202;28;20214;-76
2021/12/27 02:17:05;;;;;;;8.65;1.58;;;23.00;99.90;;;;;;5014343;28;20589;-74
2021/12/27 02:19:39;;;;;;;8.73;1.70;;;22.80;99.90;;;;;;5014747;28;20253;-75
2021/12/27 02:22:11;;;;;;;27.65;13.10;;;22.70;99.90;;;;;;5009834;28;20206;-75
2021/12/27 02:24:42;;;;;;;13.85;5.75;;;22.60;99.90;;;;;;5014985;28;20604;-76
2021/12/27 02:27:16;;;;;;;14.35;3.92;;;22.60;99.90;;;;;;5014501;28;20191;-76
2021/12/27 02:29:48;;;;;;;15.50;3.92;;;22.60;99.90;;;;;;5014743;28;20202;-75
2021/12/27 02:32:19;;;;;;;11.95;2.72;;;22.60;99.90;;;;;;5010368;28;20639;-76
2021/12/27 02:34:49;;;;;;;12.07;2.20;;;22.60;99.90;;;;;;5014184;28;20223;-74
2021/12/27 02:37:22;;;;;;;8.50;2.13;;;22.60;99.90;;;;;;5014390;28;20202;-75
2021/12/27 02:39:52;;;;;;;9.35;2.00;;;22.60;99.90;;;;;;5014010;28;20225;-76
2021/12/27 02:42:23;;;;;;;8.75;1.50;;;22.60;99.90;;;;;;5014281;28;20210;-73
2021/12/27 02:44:54;;;;;;;7.15;1.67;;;22.50;99.90;;;;;;5012886;28;20620;-75
2021/12/27 02:47:24;;;;;;;10.02;1.80;;;22.40;99.90;;;;;;5013651;28;20195;-75
2021/12/27 02:49:55;;;;;;;12.13;1.73;;;22.40;99.90;;;;;;5013761;28;20709;-73
2021/12/27 02:52:27;;;;;;;7.68;1.50;;;22.40;99.90;;;;;;5014407;28;20644;-75
2021/12/27 02:54:58;;;;;;;10.63;1.80;;;22.40;99.90;;;;;;5013837;28;20218;-74
2021/12/27 02:57:29;;;;;;;11.05;1.63;;;22.30;99.90;;;;;;5012918;28;20685;-75
2021/12/27 03:00:00;;;;;;;6.70;1.50;;;22.20;99.90;;;;;;5013025;28;20201;-74
2021/12/27 03:02:31;;;;;;;10.43;1.73;;;22.10;99.90;;;;;;5014151;28;20278;-74
2021/12/27 03:05:03;;;;;;;9.88;1.60;;;22.10;99.90;;;;;;5014165;28;20199;-74
2021/12/27 03:07:35;;;;;;;8.93;1.55;;;22.10;99.90;;;;;;5013962;28;20562;-74
2021/12/27 03:10:06;;;;;;;8.85;1.33;;;22.00;99.90;;;;;;5022412;28;20221;-75
2021/12/27 03:12:38;;;;;;;8.55;1.30;;;22.00;99.90;;;;;;5053511;28;20236;-75
2021/12/27 03:15:10;;;;;;;4.85;1.20;;;22.00;99.90;;;;;;5053294;28;20292;-75
2021/12/27 03:17:44;;;;;;;6.10;1.17;;;22.00;99.90;;;;;;5049904;28;20251;-74
2021/12/27 03:20:16;;;;;;;6.55;1.35;;;21.90;99.90;;;;;;5052861;28;20235;-74
2021/12/27 03:22:49;;;;;;;7.38;1.33;;;21.90;99.90;;;;;;5053138;28;20190;-74
2021/12/27 03:25:21;;;;;;;7.63;1.17;;;21.80;99.90;;;;;;5052212;28;20546;-74
2021/12/27 03:27:52;;;;;;;5.32;0.88;;;21.80;99.90;;;;;;5053659;28;20239;-75
2021/12/27 03:30:24;;;;;;;6.68;1.20;;;21.90;99.90;;;;;;5052572;28;20185;-73
2021/12/27 03:32:55;;;;;;;5.85;1.17;;;21.90;99.90;;;;;;5053159;28;20629;-77
2021/12/27 03:35:34;;;;;;;4.65;1.13;;;21.90;99.90;;;;;;5051768;28;20220;-75
2021/12/27 03:38:12;;;;;;;9.48;1.20;;;21.90;99.90;;;;;;5034071;28;20190;-72
2021/12/27 03:40:44;;;;;;;5.40;1.20;;;21.80;99.90;;;;;;5052641;28;20602;-74
2021/12/27 03:43:15;;;;;;;3.78;0.90;;;21.80;99.90;;;;;;5047158;28;20569;-78
2021/12/27 03:45:46;;;;;;;5.38;0.90;;;21.80;99.90;;;;;;5050830;28;20703;-74
2021/12/27 03:48:17;;;;;;;7.18;1.10;;;21.80;99.90;;;;;;5045417;28;20193;-74
2021/12/27 03:50:48;;;;;;;5.07;0.95;;;21.70;99.90;;;;;;5046760;28;20719;-75
2021/12/27 03:53:20;;;;;;;4.15;0.85;;;21.70;99.90;;;;;;5052543;28;20612;-73
2021/12/27 03:55:51;;;;;;;6.05;0.88;;;21.70;99.90;;;;;;5052419;28;20213;-75
2021/12/27 03:58:28;;;;;;;7.30;1.05;;;21.80;99.90;;;;;;5052679;28;20197;-74
2021/12/27 04:01:13;;;;;;;8.57;0.93;;;21.80;99.90;;;;;;5052811;28;20234;-75
2021/12/27 04:03:49;;;;;;;3.75;0.80;;;22.00;99.90;;;;;;5051423;28;20648;-73
2021/12/27 04:06:21;;;;;;;5.90;0.77;;;21.90;99.90;;;;;;5052079;28;20197;-75
2021/12/27 04:08:54;;;;;;;5.00;0.77;;;21.90;99.90;;;;;;5051937;28;20196;-75
2021/12/27 04:11:24;;;;;;;4.20;0.73;;;21.80;99.90;;;;;;5052681;28;20229;-73
2021/12/27 04:13:55;;;;;;;4.10;0.90;;;21.80;99.90;;;;;;5047082;28;20190;-73
2021/12/27 04:16:26;;;;;;;4.03;0.70;;;21.80;99.90;;;;;;5054413;28;20209;-74
2021/12/27 04:18:57;;;;;;;3.10;0.65;;;21.80;99.90;;;;;;5052535;28;20189;-75
2021/12/27 04:21:27;;;;;;;1.40;0.50;;;21.90;99.90;;;;;;5052505;28;20651;-74
2021/12/27 04:24:02;;;;;;;2.38;0.52;;;21.90;99.90;;;;;;5052346;28;20205;-74
2021/12/27 04:26:33;;;;;;;3.38;0.70;;;22.00;99.90;;;;;;5052386;28;20208;-75
2021/12/27 04:29:04;;;;;;;1.63;0.47;;;22.20;99.90;;;;;;5051749;28;20189;-73
2021/12/27 04:31:35;;;;;;;3.03;0.68;;;22.20;99.90;;;;;;5052599;28;20193;-73
2021/12/27 04:34:06;;;;;;;3.33;0.50;;;22.30;99.90;;;;;;5052555;28;20235;-72
2021/12/27 04:36:36;;;;;;;3.35;0.77;;;22.60;99.90;;;;;;5052513;28;20214;-74
2021/12/27 04:39:10;;;;;;;3.20;0.85;;;22.80;99.90;;;;;;5049904;28;20228;-74
2021/12/27 04:41:40;;;;;;;1.95;0.60;;;22.70;99.90;;;;;;5052325;28;20239;-74
2021/12/27 04:44:12;;;;;;;2.30;0.50;;;22.40;99.90;;;;;;5052350;28;20197;-74
2021/12/27 04:46:42;;;;;;;2.05;0.60;;;22.20;99.90;;;;;;5047955;28;20707;-73
2021/12/27 04:49:13;;;;;;;2.70;0.50;;;22.20;99.90;;;;;;5052261;28;20185;-73
2021/12/27 04:51:44;;;;;;;2.08;0.50;;;22.40;99.90;;;;;;5052452;28;20193;-74
2021/12/27 04:54:18;;;;;;;3.75;0.60;;;22.40;99.90;;;;;;5052780;28;20272;-74
2021/12/27 04:56:48;;;;;;;6.00;0.70;;;22.40;99.90;;;;;;5052579;28;20214;-74
2021/12/27 04:59:22;;;;;;;3.10;0.80;;;22.50;99.90;;;;;;5052679;28;20190;-75
2021/12/27 05:01:53;;;;;;;5.05;0.85;;;22.60;99.90;;;;;;5051137;28;20646;-75
2021/12/27 05:04:23;;;;;;;2.58;0.60;;;22.70;99.90;;;;;;5048280;28;20259;-75
2021/12/27 05:06:54;;;;;;;2.88;0.68;;;22.70;99.90;;;;;;5051868;28;20194;-74
2021/12/27 05:09:27;;;;;;;4.53;0.70;;;22.70;99.90;;;;;;5052174;28;20190;-75
2021/12/27 05:11:57;;;;;;;5.30;0.93;;;22.80;99.90;;;;;;5052505;28;20215;-73
2021/12/27 05:14:28;;;;;;;5.82;0.93;;;22.60;99.90;;;;;;5054909;28;20194;-74
2021/12/27 05:16:58;;;;;;;3.78;0.82;;;22.40;99.90;;;;;;5055673;28;20198;-73
2021/12/27 05:19:30;;;;;;;1.92;0.60;;;22.10;99.90;;;;;;5049346;28;20190;-75
2021/12/27 05:22:00;;;;;;;1.90;0.70;;;21.50;99.90;;;;;;5052012;28;20198;-74
2021/12/27 05:24:33;;;;;;;3.45;0.55;;;21.00;99.90;;;;;;5056168;28;20658;-73
2021/12/27 05:27:03;;;;;;;3.33;0.88;;;20.70;99.90;;;;;;5055778;28;20197;-73
2021/12/27 05:29:34;;;;;;;4.53;0.90;;;20.60;99.90;;;;;;5056102;28;20529;-73
2021/12/27 05:32:05;;;;;;;5.80;1.10;;;20.40;99.90;;;;;;5053760;28;20247;-74
2021/12/27 05:34:36;;;;;;;5.03;1.00;;;20.20;99.90;;;;;;5053850;28;20194;-73
2021/12/27 05:37:07;;;;;;;6.53;1.30;;;20.10;99.90;;;;;;5035644;28;20647;-75
2021/12/27 05:39:40;;;;;;;5.93;1.20;;;20.00;99.90;;;;;;5049334;28;20283;-76
2021/12/27 05:42:12;;;;;;;6.57;1.27;;;19.90;99.90;;;;;;5054549;28;20190;-79
2021/12/27 05:44:43;;;;;;;6.45;1.20;;;19.70;99.90;;;;;;5055383;28;20216;-74
2021/12/27 05:47:13;;;;;;;6.88;1.20;;;19.70;99.90;;;;;;5054859;28;20189;-74
2021/12/27 05:49:44;;;;;;;7.32;1.73;;;19.80;99.90;;;;;;5053470;28;20197;-74
2021/12/27 05:52:15;;;;;;;8.10;1.40;;;19.60;99.90;;;;;;5055674;28;20657;-74
2021/12/27 05:54:47;;;;;;;7.65;1.10;;;19.60;99.90;;;;;;5053866;28;20221;-76
2021/12/27 05:57:19;;;;;;;9.32;1.38;;;19.60;99.90;;;;;;5046401;28;20248;-74
2021/12/27 05:59:50;;;;;;;8.13;1.30;;;19.50;99.90;;;;;;5052388;28;20559;-75
2021/12/27 06:02:21;;;;;;;10.77;1.30;;;19.50;99.90;;;;;;5055223;28;20196;-74
2021/12/27 06:04:51;;;;;;;7.68;1.13;;;19.60;99.90;;;;;;5054855;28;20273;-75
2021/12/27 06:07:22;;;;;;;7.72;1.42;;;19.60;99.90;;;;;;5054827;28;20201;-74
2021/12/27 06:09:55;;;;;;;10.68;1.88;;;19.40;99.90;;;;;;5054571;28;20600;-74
2021/12/27 06:12:25;;;;;;;10.93;1.90;;;19.50;99.90;;;;;;5055025;28;20194;-74
2021/12/27 06:14:56;;;;;;;8.10;1.38;;;19.30;99.90;;;;;;5054806;28;20189;-75
2021/12/27 06:17:26;;;;;;;6.22;1.38;;;19.20;99.90;;;;;;5054811;28;20193;-75
2021/12/27 06:19:57;;;;;;;13.07;1.70;;;19.10;99.90;;;;;;5054308;28;20240;-75
2021/12/27 06:22:29;;;;;;;5.38;1.25;;;19.10;99.90;;;;;;5054608;28;20243;-75
2021/12/27 06:25:03;;;;;;;10.50;1.90;;;19.00;99.90;;;;;;5037086;28;20194;-74
2021/12/27 06:27:34;;;;;;;5.60;1.38;;;19.10;99.90;;;;;;5052829;28;20701;-75
2021/12/27 06:30:06;;;;;;;8.27;1.58;;;19.10;99.90;;;;;;5043145;28;20185;-74
2021/12/27 06:32:37;;;;;;;8.80;1.58;;;19.20;99.90;;;;;;5054564;28;20189;-74
2021/12/27 06:35:10;;;;;;;8.85;1.52;;;19.30;99.90;;;;;;5053370;28;20186;-74
2021/12/27 06:37:41;;;;;;;5.07;1.48;;;19.30;99.90;;;;;;5054341;28;20243;-73
2021/12/27 06:40:15;;;;;;;8.93;1.48;;;19.30;99.90;;;;;;5053187;28;20204;-74
2021/12/27 06:42:50;;;;;;;7.22;1.58;;;19.30;99.90;;;;;;5040838;28;20594;-74
2021/12/27 06:45:21;;;;;;;10.95;2.08;;;19.20;99.90;;;;;;5054147;28;20194;-74
2021/12/27 06:47:51;;;;;;;8.38;2.30;;;19.20;99.90;;;;;;5054642;28;20190;-73
2021/12/27 06:50:23;;;;;;;13.90;2.42;;;19.20;99.90;;;;;;5054022;28;20244;-74
2021/12/27 06:52:54;;;;;;;14.07;2.63;;;19.20;99.90;;;;;;5053528;28;20586;-73
2021/12/27 06:55:26;;;;;;;11.13;1.98;;;19.20;99.90;;;;;;5053620;28;20225;-74
2021/12/27 06:57:57;;;;;;;10.05;1.65;;;19.20;99.90;;;;;;5053736;28;20190;-74
2021/12/27 07:00:27;;;;;;;8.60;1.60;;;19.20;99.90;;;;;;5053735;28;20189;-74
2021/12/27 07:02:58;;;;;;;8.98;1.45;;;19.30;99.90;;;;;;5051865;28;20193;-75
2021/12/27 07:05:29;;;;;;;9.30;1.60;;;19.20;99.90;;;;;;5052768;28;20189;-74
2021/12/27 07:07:59;;;;;;;11.65;1.63;;;19.20;99.90;;;;;;5053019;28;20198;-74
2021/12/27 07:10:32;;;;;;;8.32;1.58;;;19.10;99.90;;;;;;5053399;28;20229;-74
2021/12/27 07:13:04;;;;;;;9.88;1.58;;;19.00;99.90;;;;;;5053732;28;20267;-74
2021/12/27 07:15:40;;;;;;;10.98;1.50;;;19.00;99.90;;;;;;5053442;28;20213;-76
2021/12/27 07:18:11;;;;;;;8.18;1.48;;;19.00;99.90;;;;;;5053381;28;20190;-74
2021/12/27 07:20:42;;;;;;;7.85;1.42;;;19.10;99.90;;;;;;5053756;28;20642;-74
2021/12/27 07:23:13;;;;;;;8.63;1.67;;;19.10;99.90;;;;;;5053637;28;20197;-75
2021/12/27 07:25:45;;;;;;;11.02;1.92;;;19.20;99.90;;;;;;5052814;28;20193;-74
2021/12/27 07:28:16;;;;;;;13.48;2.03;;;19.00;99.90;;;;;;5053084;28;20193;-75
2021/12/27 07:30:47;;;;;;;10.77;1.75;;;18.80;99.90;;;;;;5052646;28;20260;-75
2021/12/27 07:33:18;;;;;;;12.43;2.05;;;18.80;99.90;;;;;;5052744;28;20197;-73
2021/12/27 07:35:49;;;;;;;12.75;2.17;;;18.80;99.90;;;;;;5052604;28;20228;-75
2021/12/27 07:38:19;;;;;;;9.10;1.95;;;18.70;99.90;;;;;;5050595;28;20221;-73
2021/12/27 07:40:52;;;;;;;11.10;1.77;;;18.70;99.90;;;;;;5052689;28;20204;-73
2021/12/27 07:43:23;;;;;;;11.65;1.92;;;18.70;99.90;;;;;;5052866;28;20182;-74
2021/12/27 07:45:54;;;;;;;8.32;1.58;;;18.70;99.90;;;;;;5052768;28;20194;-73
2021/12/27 07:48:24;;;;;;;14.32;2.10;;;18.70;99.90;;;;;;5052744;28;20653;-76
2021/12/27 07:50:55;;;;;;;6.18;1.60;;;18.70;99.90;;;;;;5053046;28;20197;-74
2021/12/27 07:53:26;;;;;;;7.43;1.80;;;18.70;99.90;;;;;;5052336;28;20193;-74
2021/12/27 07:55:58;;;;;;;8.98;1.60;;;18.70;99.90;;;;;;5052204;28;20216;-74
2021/12/27 07:58:29;;;;;;;8.27;1.70;;;18.80;99.90;;;;;;5052668;28;20186;-74
2021/12/27 08:00:59;;;;;;;6.25;1.10;;;18.80;99.90;;;;;;5051727;28;20190;-74
2021/12/27 08:03:30;;;;;;;7.30;1.35;;;18.80;99.90;;;;;;5052572;28;20235;-74
2021/12/27 08:06:01;;;;;;;8.88;1.80;;;18.90;99.90;;;;;;5052679;28;20189;-74
2021/12/27 08:08:32;;;;;;;8.63;1.30;;;18.90;99.90;;;;;;5052574;28;20660;-73
2021/12/27 08:11:05;;;;;;;10.52;1.60;;;18.90;99.90;;;;;;5051885;28;20229;-74
2021/12/27 08:13:37;;;;;;;6.20;1.45;;;18.90;99.90;;;;;;5050147;28;20193;-74
2021/12/27 08:16:08;;;;;;;4.22;1.30;;;18.80;99.90;;;;;;5035968;28;20210;-74
2021/12/27 08:18:41;;;;;;;6.95;1.30;;;18.70;99.90;;;;;;5052972;28;20194;-74
2021/12/27 08:21:12;;;;;;;8.63;1.67;;;18.70;99.90;;;;;;5052466;28;20278;-74
2021/12/27 08:23:42;;;;;;;7.28;1.20;;;18.60;99.90;;;;;;5052650;28;20603;-74
2021/12/27 08:26:18;;;;;;;7.90;1.20;;;18.60;99.90;;;;;;5052661;28;20201;-74
2021/12/27 08:28:50;;;;;;;4.80;1.20;;;18.60;99.90;;;;;;5052239;28;20193;-75
2021/12/27 08:31:20;;;;;;;8.05;1.70;;;18.50;99.90;;;;;;5052466;28;20200;-74
2021/12/27 08:33:51;;;;;;;8.77;1.52;;;18.60;99.90;;;;;;5045949;28;20190;-73
2021/12/27 08:36:22;;;;;;;7.25;1.75;;;18.50;99.90;;;;;;5052076;28;20224;-74
2021/12/27 08:38:53;;;;;;;7.88;1.65;;;18.50;99.90;;;;;;5051984;28;20242;-73
2021/12/27 08:41:27;;;;;;;7.63;2.03;;;18.50;99.90;;;;;;5052647;28;20673;-74
2021/12/27 08:44:00;;;;;;;8.40;1.52;;;18.50;99.90;;;;;;5051800;28;20613;-74
2021/12/27 08:46:31;;;;;;;9.10;1.70;;;18.60;99.90;;;;;;5052409;28;20198;-74
2021/12/27 08:49:02;;;;;;;9.80;1.90;;;18.50;99.90;;;;;;5054295;28;20536;-74
2021/12/27 08:51:32;;;;;;;9.65;1.95;;;18.60;99.90;;;;;;5056564;28;20672;-74
2021/12/27 08:54:03;;;;;;;14.52;2.40;;;18.60;99.90;;;;;;5056063;28;20642;-74
2021/12/27 08:56:36;;;;;;;12.65;2.25;;;18.60;99.90;;;;;;5056293;28;20217;-73
2021/12/27 08:59:07;;;;;;;9.48;1.98;;;18.50;99.90;;;;;;5055585;28;20194;-74
2021/12/27 09:01:37;;;;;;;12.35;2.38;;;18.50;99.90;;;;;;5055435;28;20189;-73
2021/12/27 09:04:09;;;;;;;9.68;1.98;;;18.50;99.90;;;;;;5061301;28;20698;-73
2021/12/27 09:06:39;;;;;;;7.05;2.17;;;18.50;99.90;;;;;;5056590;28;20545;-73
2021/12/27 09:09:10;;;;;;;14.88;2.40;;;18.50;99.90;;;;;;5051384;28;20193;-73
2021/12/27 09:11:42;;;;;;;12.68;2.13;;;18.60;99.90;;;;;;5056446;28;20279;-73
2021/12/27 09:14:15;;;;;;;11.73;2.50;;;18.60;99.90;;;;;;5046602;28;20634;-73
2021/12/27 09:16:46;;;;;;;10.20;1.80;;;18.60;99.90;;;;;;5056160;28;20225;-74
2021/12/27 09:19:18;;;;;;;10.25;2.10;;;18.60;99.90;;;;;;5055779;28;20642;-73
2021/12/27 09:21:49;;;;;;;10.10;2.00;;;18.60;99.90;;;;;;5055502;28;20189;-74
2021/12/27 09:24:19;;;;;;;13.20;2.30;;;18.60;99.90;;;;;;5055826;28;20748;-73
2021/12/27 09:26:52;;;;;;;12.20;2.90;;;18.60;99.90;;;;;;5054287;28;20196;-73
2021/12/27 09:29:23;;;;;;;14.25;2.75;;;18.60;99.90;;;;;;5053394;28;20586;-74
2021/12/27 09:31:54;;;;;;;11.63;1.65;;;18.60;99.90;;;;;;5055657;28;20276;-74
2021/12/27 09:34:27;;;;;;;10.27;2.15;;;18.50;99.90;;;;;;5055123;28;20657;-74
2021/12/27 09:36:58;;;;;;;11.68;1.80;;;18.40;99.90;;;;;;5035865;28;20222;-74
2021/12/27 09:39:29;;;;;;;10.75;1.75;;;18.20;99.90;;;;;;5054164;28;20272;-76
2021/12/27 09:42:02;;;;;;;9.75;1.70;;;18.20;99.90;;;;;;5055331;28;20251;-74
2021/12/27 09:44:32;;;;;;;7.47;1.42;;;18.10;99.90;;;;;;5051652;28;20186;-74
2021/12/27 09:47:03;;;;;;;10.88;1.80;;;17.90;99.90;;;;;;5046213;28;20198;-75
2021/12/27 09:49:34;;;;;;;9.82;1.63;;;17.90;99.90;;;;;;5055259;28;20198;-75
2021/12/27 09:52:06;;;;;;;12.23;2.10;;;17.80;99.90;;;;;;5054925;28;20259;-75
2021/12/27 09:54:37;;;;;;;13.07;2.42;;;17.80;99.90;;;;;;5055185;28;20193;-74
2021/12/27 09:57:09;;;;;;;9.82;1.77;;;17.80;99.90;;;;;;5053672;28;20210;-74
2021/12/27 09:59:40;;;;;;;6.65;1.60;;;17.80;99.90;;;;;;5049363;28;20186;-75
2021/12/27 10:02:12;;;;;;;7.20;2.00;;;17.80;99.90;;;;;;5054011;28;20638;-75
2021/12/27 10:04:43;;;;;;;10.00;2.13;;;17.70;99.90;;;;;;5053079;28;20551;-75
2021/12/27 10:07:20;;;;;;;11.35;1.98;;;17.80;99.90;;;;;;5054169;28;20186;-75
2021/12/27 10:09:58;;;;;;;11.38;1.73;;;17.70;99.90;;;;;;5053838;28;20689;-75
2021/12/27 10:12:31;;;;;;;11.00;1.52;;;17.70;99.90;;;;;;5048072;28;20202;-75
2021/12/27 10:15:02;;;;;;;10.40;1.75;;;17.80;99.90;;;;;;5052452;28;20227;-75
2021/12/27 10:17:35;;;;;;;11.05;2.00;;;17.80;99.90;;;;;;5045061;28;20317;-75
2021/12/27 10:20:14;;;;;;;9.38;1.80;;;17.80;99.90;;;;;;5046259;28;20191;-75
2021/12/27 10:22:46;;;;;;;8.00;1.63;;;17.90;99.90;;;;;;5054182;28;20186;-75
2021/12/27 10:25:21;;;;;;;9.90;2.13;;;18.00;99.90;;;;;;5053869;28;20193;-75
2021/12/27 10:27:55;;;;;;;11.13;1.98;;;17.90;99.90;;;;;;5054084;28;20592;-75
2021/12/27 10:30:26;;;;;;;9.13;1.48;;;17.90;99.90;;;;;;5054297;28;20704;-75
2021/12/27 10:33:10;;;;;;;11.15;1.70;;;17.90;99.90;;;;;;5054063;28;20641;-75
2021/12/27 10:35:42;;;;;;;7.47;1.42;;;17.90;99.90;;;;;;5053661;28;20683;-75
2021/12/27 10:38:20;;;;;;;7.93;1.83;;;17.90;99.90;;;;;;5053768;28;20221;-75
2021/12/27 10:40:56;;;;;;;8.70;1.80;;;17.90;99.90;;;;;;5050218;28;20217;-75
2021/12/27 10:43:42;;;;;;;6.10;1.30;;;17.90;99.90;;;;;;5050264;28;20200;-75
2021/12/27 10:46:14;;;;;;;9.65;1.80;;;17.90;99.90;;;;;;5048755;28;20185;-75
2021/12/27 10:48:46;;;;;;;11.90;1.88;;;17.90;99.90;;;;;;5053512;28;20197;-75
2021/12/27 10:51:17;;;;;;;6.63;1.30;;;17.90;99.90;;;;;;5053638;28;20240;-76
2021/12/27 10:53:49;;;;;;;16.48;2.20;;;17.90;99.90;;;;;;5055752;28;20194;-75
2021/12/27 10:56:22;;;;;;;12.73;1.95;;;17.90;99.90;;;;;;5053323;28;20247;-76
2021/12/27 10:58:56;;;;;;;8.60;2.00;;;17.80;99.90;;;;;;5053359;28;20190;-77
2021/12/27 11:01:29;;;;;;;11.77;1.90;;;17.70;99.90;;;;;;5051108;28;20255;-78
2021/12/27 11:04:03;;;;;;;8.57;2.08;;;17.70;99.90;;;;;;5052671;28;20641;-80
2021/12/27 11:06:40;;;;;;;9.27;1.77;;;17.70;99.90;;;;;;5053452;28;20192;-81
2021/12/27 11:09:14;;;;;;;11.20;1.98;;;17.60;99.90;;;;;;5053438;28;20193;-81
2021/12/27 11:11:45;;;;;;;13.07;1.98;;;17.50;99.90;;;;;;5052653;28;20221;-81
2021/12/27 11:14:17;;;;;;;12.05;1.65;;;17.50;99.90;;;;;;5052609;28;20197;-81
2021/12/27 11:16:48;;;;;;;14.50;1.90;;;17.50;99.90;;;;;;5052175;28;20279;-80
2021/12/27 11:19:19;;;;;;;11.35;2.08;;;17.50;99.90;;;;;;5053215;28;20259;-80
2021/12/27 11:21:51;;;;;;;12.80;2.00;;;17.50;99.90;;;;;;5044577;28;20626;-80
2021/12/27 11:24:21;;;;;;;12.55;2.05;;;17.50;99.90;;;;;;5052311;28;20197;-80
2021/12/27 11:26:55;;;;;;;10.82;1.77;;;17.50;99.90;;;;;;5048834;28;20192;-80
2021/12/27 11:29:27;;;;;;;9.90;1.60;;;17.50;99.90;;;;;;5046045;28;20212;-80
2021/12/27 11:32:16;;;;;;;14.63;2.17;;;17.50;99.90;;;;;;5053375;28;20182;-80
2021/12/27 11:34:58;;;;;;;12.07;2.10;;;17.50;99.90;;;;;;5052847;28;20197;-80
2021/12/27 11:37:39;;;;;;;9.40;2.10;;;17.60;99.90;;;;;;5052475;28;20231;-80
2021/12/27 11:40:13;;;;;;;11.35;1.73;;;17.70;99.90;;;;;;5052410;28;20217;-80
2021/12/27 11:42:57;;;;;;;10.30;1.92;;;17.70;99.90;;;;;;5053085;28;20205;-80
2021/12/27 11:45:47;;;;;;;16.65;2.63;;;17.70;99.90;;;;;;5053117;28;20661;-80
2021/12/27 11:48:20;;;;;;;9.07;1.60;;;17.60;99.90;;;;;;5052299;28;20196;-79
2021/12/27 11:51:09;;;;;;;8.80;1.90;;;17.60;99.90;;;;;;5052848;28;20693;-80
2021/12/27 11:53:54;;;;;;;13.57;2.05;;;17.70;99.90;;;;;;5044874;28;20594;-79
2021/12/27 11:56:49;;;;;;;8.82;1.67;;;17.60;99.90;;;;;;5052395;28;20215;-78
2021/12/27 11:59:35;;;;;;;10.60;1.38;;;17.60;99.90;;;;;;5050606;28;20759;-78
2021/12/27 12:02:31;;;;;;;7.22;1.10;;;17.60;99.90;;;;;;5052187;28;20657;-79
2021/12/27 12:05:03;;;;;;;5.72;1.10;;;17.40;99.90;;;;;;5044818;28;20539;-78
2021/12/27 12:07:54;;;;;;;6.65;1.05;;;17.30;99.90;;;;;;5047189;28;20193;-78
2021/12/27 12:10:26;;;;;;;6.68;1.30;;;17.20;99.90;;;;;;5051831;28;20290;-79
2021/12/27 12:13:21;;;;;;;7.57;1.10;;;17.20;99.90;;;;;;5040130;28;20196;-79
2021/12/27 12:16:10;;;;;;;6.43;1.27;;;17.20;99.90;;;;;;5052125;28;20288;-79
2021/12/27 12:18:44;;;;;;;8.98;1.20;;;17.30;99.90;;;;;;5051755;28;20209;-79
2021/12/27 12:21:38;;;;;;;7.75;1.33;;;17.40;99.90;;;;;;5049123;28;20186;-79
2021/12/27 12:24:09;;;;;;;10.68;1.42;;;17.40;99.90;;;;;;5052738;28;20186;-79
2021/12/27 12:26:55;;;;;;;7.35;1.30;;;17.50;99.90;;;;;;5046724;28;20190;-79
2021/12/27 12:29:28;;;;;;;8.60;1.30;;;17.50;99.90;;;;;;5049968;28;20216;-79
2021/12/27 12:32:01;;;;;;;7.57;1.20;;;17.50;99.90;;;;;;5051071;28;20186;-79
2021/12/27 12:34:34;;;;;;;7.22;1.65;;;17.40;99.90;;;;;;5056150;28;20200;-79
2021/12/27 12:37:06;;;;;;;7.28;1.20;;;17.40;99.90;;;;;;5055887;28;20182;-78
2021/12/27 12:39:42;;;;;;;8.27;1.05;;;17.30;99.90;;;;;;5055466;28;20221;-79
2021/12/27 12:42:14;;;;;;;8.80;1.45;;;17.30;99.90;;;;;;5055399;28;20240;-78
2021/12/27 12:44:56;;;;;;;12.20;2.00;;;17.30;99.90;;;;;;5043719;28;20181;-79
2021/12/27 12:47:27;;;;;;;13.32;1.60;;;17.30;99.90;;;;;;5056269;28;20202;-79
2021/12/27 12:50:00;;;;;;;12.93;1.60;;;17.30;99.90;;;;;;5053216;28;20643;-78
2021/12/27 12:52:31;;;;;;;8.35;1.35;;;17.30;99.90;;;;;;5041676;28;20599;-79
2021/12/27 12:55:01;;;;;;;8.70;1.50;;;17.20;99.90;;;;;;5055946;28;20190;-78
2021/12/27 12:57:32;;;;;;;10.82;1.50;;;17.30;99.90;;;;;;5055336;28;20213;-78
2021/12/27 13:00:03;;;;;;;9.02;1.42;;;17.30;99.90;;;;;;5055677;28;20193;-78
2021/12/27 13:02:35;;;;;;;9.45;1.38;;;17.30;99.90;;;;;;5055887;28;20565;-78
2021/12/27 13:05:09;;;;;;;9.57;1.70;;;17.20;99.90;;;;;;5055574;28;20182;-78
2021/12/27 13:07:44;;;;;;;11.25;1.70;;;17.30;99.90;;;;;;5055634;28;20200;-78
2021/12/27 13:10:21;;;;;;;7.07;1.13;;;17.20;99.90;;;;;;5055913;28;20240;-78
2021/12/27 13:12:52;;;;;;;6.75;1.05;;;17.10;99.90;;;;;;5055736;28;20268;-78